createdAt,value
2022-09-01T00:00:15.188Z,10.60
2022-09-01T00:02:45.253Z,10.58
2022-09-01T00:05:13.329Z,10.54
2022-09-01T00:07:41.401Z,10.33
2022-09-01T00:10:10.680Z,10.42
2022-09-01T00:12:43.474Z,10.15
2022-09-01T00:15:13.178Z,10.49
2022-09-01T00:17:42.276Z,10.47
2022-09-01T00:20:11.550Z,10.45
2022-09-01T00:22:39.867Z,10.34
2022-09-01T00:25:09.093Z,10.41
2022-09-01T00:27:37.040Z,10.40
2022-09-01T00:30:07.875Z,10.41
2022-09-01T00:32:35.805Z,10.40
2022-09-01T00:35:04.090Z,10.41
2022-09-01T00:37:32.197Z,10.41
2022-09-01T00:40:00.182Z,10.40
2022-09-01T00:42:28.222Z,10.40
2022-09-01T00:44:56.205Z,10.39
2022-09-01T00:47:25.815Z,10.34
2022-09-01T00:49:54.841Z,10.28
2022-09-01T00:52:29.657Z,10.24
2022-09-01T00:55:04.220Z,10.34
2022-09-01T00:57:32.296Z,10.33
2022-09-01T01:00:02.983Z,10.33
2022-09-01T01:02:32.590Z,10.30
2022-09-01T01:05:00.925Z,10.30
2022-09-01T01:07:30.033Z,10.34
2022-09-01T01:09:58.643Z,10.31
2022-09-01T01:12:28.103Z,10.30
2022-09-01T01:14:57.116Z,10.30
2022-09-01T01:17:25.572Z,10.28
2022-09-01T01:20:14.917Z,10.26
2022-09-01T01:23:05.915Z,10.24
2022-09-01T01:25:38.561Z,10.18
2022-09-01T01:28:09.148Z,10.23
2022-09-01T01:30:39.699Z,10.18
2022-09-01T01:33:08.134Z,10.02
2022-09-01T01:35:38.010Z,10.25
2022-09-01T01:38:08.440Z,10.25
2022-09-01T01:40:38.348Z,10.23
2022-09-01T01:43:07.275Z,10.24
2022-09-01T01:45:35.813Z,10.08
2022-09-01T01:48:06.334Z,10.24
2022-09-01T01:50:38.062Z,10.26
2022-09-01T01:53:11.350Z,10.29
2022-09-01T01:55:43.871Z,10.29
2022-09-01T01:58:12.722Z,10.33
2022-09-01T02:00:44.744Z,10.33
2022-09-01T02:03:17.411Z,10.21
2022-09-01T02:05:47.100Z,9.80
2022-09-01T02:08:18.612Z,10.31
2022-09-01T02:10:50.367Z,10.27
2022-09-01T02:13:21.163Z,10.26
2022-09-01T02:15:53.813Z,10.23
2022-09-01T02:18:24.857Z,10.21
2022-09-01T02:20:53.860Z,10.01
2022-09-01T02:23:24.522Z,10.21
2022-09-01T02:26:15.641Z,10.21
2022-09-01T02:28:49.814Z,10.22
2022-09-01T02:31:21.169Z,10.24
2022-09-01T02:33:49.193Z,10.26
2022-09-01T02:36:19.755Z,10.29
2022-09-01T02:38:53.429Z,10.31
2022-09-01T02:41:29.277Z,10.05
2022-09-01T02:44:02.552Z,10.34
2022-09-01T02:46:30.842Z,10.33
2022-09-01T02:49:00.737Z,10.20
2022-09-01T02:51:29.148Z,10.29
2022-09-01T02:53:57.847Z,10.35
2022-09-01T02:56:27.845Z,10.43
2022-09-01T02:58:56.526Z,10.46
2022-09-01T03:01:28.742Z,10.49
2022-09-01T03:03:58.920Z,10.51
2022-09-01T03:06:28.225Z,10.51
2022-09-01T03:09:00.380Z,10.52
2022-09-01T03:11:32.552Z,10.54
2022-09-01T03:14:00.678Z,10.55
2022-09-01T03:16:30.618Z,10.56
2022-09-01T03:18:59.336Z,10.55
2022-09-01T03:21:27.835Z,10.54
2022-09-01T03:23:55.902Z,10.50
2022-09-01T03:26:24.272Z,10.49
2022-09-01T03:28:53.721Z,10.50
2022-09-01T03:31:22.349Z,10.49
2022-09-01T03:33:51.120Z,10.46
2022-09-01T03:36:20.281Z,10.34
2022-09-01T03:38:51.235Z,10.38
2022-09-01T03:41:22.760Z,10.36
2022-09-01T03:43:51.323Z,10.32
2022-09-01T03:46:21.903Z,10.33
2022-09-01T03:48:52.102Z,10.30
2022-09-01T03:51:22.981Z,10.24
2022-09-01T03:53:55.641Z,10.24
2022-09-01T03:56:27.426Z,10.24
2022-09-01T03:58:57.165Z,9.92
2022-09-01T04:01:28.698Z,10.19
2022-09-01T04:03:57.311Z,10.13
2022-09-01T04:06:26.123Z,10.08
2022-09-01T04:08:57.843Z,10.12
2022-09-01T04:11:26.590Z,10.17
2022-09-01T04:13:54.461Z,10.17
2022-09-01T04:16:48.930Z,10.19
2022-09-01T04:19:26.459Z,10.20
2022-09-01T04:21:56.722Z,10.24
2022-09-01T04:24:28.150Z,10.19
2022-09-01T04:26:58.922Z,10.31
2022-09-01T04:29:28.325Z,10.34
2022-09-01T04:31:57.336Z,10.36
2022-09-01T04:34:28.257Z,10.34
2022-09-01T04:36:56.922Z,10.44
2022-09-01T04:39:25.321Z,10.48
2022-09-01T04:41:54.372Z,10.49
2022-09-01T04:44:22.330Z,10.22
2022-09-01T04:46:50.775Z,10.67
2022-09-01T04:49:22.503Z,10.73
2022-09-01T04:51:54.232Z,10.70
2022-09-01T04:54:23.998Z,10.63
2022-09-01T04:56:52.948Z,10.90
2022-09-01T04:59:23.206Z,10.95
2022-09-01T05:01:55.265Z,10.98
2022-09-01T05:04:27.506Z,11.02
2022-09-01T05:07:01.391Z,11.05
2022-09-01T05:09:30.414Z,11.06
2022-09-01T05:12:12.909Z,11.07
2022-09-01T05:14:48.635Z,11.06
2022-09-01T05:17:19.207Z,10.95
2022-09-01T05:19:51.190Z,11.03
2022-09-01T05:22:22.465Z,11.09
2022-09-01T05:24:51.607Z,11.10
2022-09-01T05:27:24.027Z,10.74
2022-09-01T05:29:51.925Z,11.11
2022-09-01T05:32:21.949Z,11.09
2022-09-01T05:34:50.649Z,11.10
2022-09-01T05:37:21.089Z,11.11
2022-09-01T05:39:48.955Z,11.04
2022-09-01T05:42:17.705Z,11.16
2022-09-01T05:44:45.597Z,11.18
2022-09-01T05:47:20.616Z,11.20
2022-09-01T05:49:49.995Z,11.22
2022-09-01T05:52:17.981Z,11.28
2022-09-01T05:54:48.096Z,11.35
2022-09-01T05:57:33.901Z,11.05
2022-09-01T06:00:03.416Z,11.48
2022-09-01T06:02:33.925Z,11.57
2022-09-01T06:05:01.914Z,11.57
2022-09-01T06:07:29.914Z,11.69
2022-09-01T06:10:00.389Z,11.74
2022-09-01T06:12:29.090Z,11.74
2022-09-01T06:14:58.361Z,11.75
2022-09-01T06:17:29.262Z,11.88
2022-09-01T06:19:58.006Z,11.94
2022-09-01T06:22:28.027Z,12.00
2022-09-01T06:25:01.892Z,12.05
2022-09-01T06:27:31.895Z,12.10
2022-09-01T06:30:00.069Z,12.19
2022-09-01T06:32:28.856Z,12.35
2022-09-01T06:34:58.226Z,12.52
2022-09-01T06:37:26.950Z,12.70
2022-09-01T06:39:55.048Z,12.76
2022-09-01T06:42:23.611Z,12.85
2022-09-01T06:44:52.961Z,12.92
2022-09-01T06:47:21.286Z,13.01
2022-09-01T06:49:51.806Z,13.07
2022-09-01T06:52:23.824Z,13.01
2022-09-01T06:54:54.065Z,13.13
2022-09-01T07:00:18.878Z,13.53
2022-09-01T07:03:09.488Z,14.30
2022-09-01T07:08:28.829Z,15.98
2022-09-01T07:16:51.760Z,18.08
2022-09-01T07:19:21.672Z,18.67
2022-09-01T07:24:37.774Z,19.47
2022-09-01T07:27:07.958Z,19.94
2022-09-01T07:29:36.265Z,20.25
2022-09-01T07:34:56.098Z,20.73
2022-09-01T07:43:09.587Z,21.51
2022-09-01T07:45:47.278Z,21.71
2022-09-01T07:51:35.683Z,21.74
2022-09-01T07:53:55.970Z,21.28
2022-09-01T07:56:25.406Z,21.10
2022-09-01T07:58:53.904Z,21.24
2022-09-01T08:01:23.836Z,20.99
2022-09-01T08:03:55.605Z,20.67
2022-09-01T08:06:27.305Z,20.74
2022-09-01T08:08:58.442Z,21.22
2022-09-01T08:14:18.135Z,21.42
2022-09-01T08:16:53.718Z,21.46
2022-09-01T08:19:23.183Z,21.87
2022-09-01T08:21:51.216Z,22.11
2022-09-01T08:24:19.253Z,21.89
2022-09-01T08:26:47.236Z,21.57
2022-09-01T08:29:15.333Z,20.94
2022-09-01T08:31:43.231Z,20.00
2022-09-01T08:34:12.903Z,18.93
2022-09-01T08:36:42.404Z,17.84
2022-09-01T08:39:10.376Z,17.17
2022-09-01T08:41:47.331Z,16.76
2022-09-01T08:44:23.477Z,16.45
2022-09-01T08:46:59.347Z,16.41
2022-09-01T08:49:28.281Z,16.39
2022-09-01T08:52:04.603Z,16.86
2022-09-01T08:54:43.600Z,17.10
2022-09-01T08:57:18.078Z,17.23
2022-09-01T08:59:46.031Z,17.47
2022-09-01T09:02:28.789Z,17.80
2022-09-01T09:05:15.569Z,18.43
2022-09-01T09:08:09.535Z,19.37
2022-09-01T09:10:47.997Z,20.28
2022-09-01T09:13:22.929Z,20.87
2022-09-01T09:16:07.308Z,21.56
2022-09-01T09:18:54.615Z,22.26
2022-09-01T09:21:29.697Z,22.29
2022-09-01T09:24:04.921Z,22.06
2022-09-01T09:26:48.596Z,21.61
2022-09-01T09:29:17.001Z,21.11
2022-09-01T09:31:49.986Z,20.83
2022-09-01T09:34:30.478Z,20.62
2022-09-01T09:36:58.438Z,20.55
2022-09-01T09:39:29.520Z,21.00
2022-09-01T09:42:09.799Z,21.52
2022-09-01T09:44:44.707Z,22.00
2022-09-01T09:47:43.760Z,22.60
2022-09-01T09:50:16.818Z,22.46
2022-09-01T09:52:48.011Z,22.20
2022-09-01T09:55:29.504Z,22.41
2022-09-01T09:58:00.642Z,22.83
2022-09-01T10:00:30.978Z,23.17
2022-09-01T10:03:14.304Z,23.56
2022-09-01T10:05:44.245Z,23.86
2022-09-01T10:08:16.669Z,23.93
2022-09-01T10:10:56.493Z,24.30
2022-09-01T10:13:31.452Z,24.11
2022-09-01T10:16:03.852Z,23.17
2022-09-01T10:18:38.771Z,21.70
2022-09-01T10:21:11.257Z,20.62
2022-09-01T10:23:41.984Z,19.83
2022-09-01T10:26:16.049Z,19.25
2022-09-01T10:28:53.537Z,18.83
2022-09-01T10:31:23.179Z,18.42
2022-09-01T10:33:52.596Z,18.29
2022-09-01T10:36:24.651Z,18.32
2022-09-01T10:38:59.952Z,18.47
2022-09-01T10:42:00.136Z,18.65
2022-09-01T10:44:34.345Z,18.76
2022-09-01T10:47:13.498Z,19.12
2022-09-01T10:50:02.312Z,19.92
2022-09-01T10:52:56.876Z,20.64
2022-09-01T10:55:28.627Z,20.99
2022-09-01T10:59:30.823Z,21.32
2022-09-01T11:01:34.976Z,21.56
2022-09-01T11:03:56.704Z,22.00
2022-09-01T11:07:17.148Z,22.74
2022-09-01T11:10:31.338Z,23.27
2022-09-01T11:13:31.570Z,23.76
2022-09-01T11:16:47.833Z,23.88
2022-09-01T11:19:37.677Z,23.36
2022-09-01T11:22:16.419Z,22.94
2022-09-01T11:25:00.376Z,22.66
2022-09-01T11:28:24.576Z,22.22
2022-09-01T11:30:58.304Z,21.31
2022-09-01T11:33:35.647Z,20.32
2022-09-01T11:36:06.244Z,19.40
2022-09-01T11:38:45.125Z,19.03
2022-09-01T11:41:26.737Z,19.48
2022-09-01T11:43:59.205Z,20.48
2022-09-01T11:46:30.734Z,21.35
2022-09-01T11:49:01.257Z,21.80
2022-09-01T11:51:30.297Z,22.07
2022-09-01T11:54:01.772Z,22.27
2022-09-01T11:56:30.521Z,22.33
2022-09-01T11:58:58.562Z,22.09
2022-09-01T12:01:36.175Z,21.51
2022-09-01T12:04:23.289Z,20.92
2022-09-01T12:06:58.187Z,20.65
2022-09-01T12:09:37.538Z,20.40
2022-09-01T12:12:07.589Z,20.49
2022-09-01T12:15:01.912Z,20.45
2022-09-01T12:17:25.926Z,20.62
2022-09-01T12:19:54.470Z,20.89
2022-09-01T12:22:24.028Z,21.06
2022-09-01T12:24:54.454Z,21.27
2022-09-01T12:27:24.279Z,21.60
2022-09-01T12:29:53.036Z,21.98
2022-09-01T12:32:21.417Z,22.49
2022-09-01T12:35:09.226Z,23.39
2022-09-01T12:37:39.391Z,24.53
2022-09-01T12:40:22.143Z,25.64
2022-09-01T12:42:52.374Z,26.56
2022-09-01T12:45:39.170Z,27.14
2022-09-01T12:48:07.637Z,27.29
2022-09-01T12:50:56.114Z,27.65
2022-09-01T12:53:30.859Z,28.04
2022-09-01T12:56:05.533Z,28.56
2022-09-01T12:58:34.817Z,29.37
2022-09-01T13:01:05.759Z,29.49
2022-09-01T13:03:37.437Z,28.98
2022-09-01T13:06:08.021Z,28.30
2022-09-01T13:08:37.757Z,27.41
2022-09-01T13:11:11.027Z,26.24
2022-09-01T13:13:39.712Z,25.13
2022-09-01T13:16:13.075Z,24.05
2022-09-01T13:21:34.752Z,21.97
2022-09-01T13:24:04.405Z,21.10
2022-09-01T13:26:32.502Z,20.65
2022-09-01T13:29:01.312Z,20.70
2022-09-01T13:31:31.807Z,20.51
2022-09-01T13:34:22.021Z,19.98
2022-09-01T13:36:52.664Z,19.48
2022-09-01T13:39:22.839Z,18.95
2022-09-01T13:41:51.167Z,18.73
2022-09-01T13:44:19.754Z,18.46
2022-09-01T13:50:05.035Z,17.84
2022-09-01T13:52:25.894Z,17.63
2022-09-01T13:54:54.108Z,17.53
2022-09-01T13:57:22.022Z,17.53
2022-09-01T13:59:50.035Z,17.75
2022-09-01T14:02:18.320Z,18.23
2022-09-01T14:04:47.023Z,19.25
2022-09-01T14:07:16.166Z,20.61
2022-09-01T14:09:45.655Z,22.49
2022-09-01T14:12:13.780Z,23.81
2022-09-01T14:17:29.861Z,26.68
2022-09-01T14:19:58.435Z,27.25
2022-09-01T14:22:26.364Z,26.63
2022-09-01T14:24:55.709Z,25.92
2022-09-01T14:27:23.743Z,25.09
2022-09-01T14:29:56.945Z,24.50
2022-09-01T14:32:27.152Z,24.07
2022-09-01T14:34:56.248Z,23.72
2022-09-01T14:37:25.066Z,24.74
2022-09-01T14:39:54.249Z,25.52
2022-09-01T14:42:25.815Z,25.37
2022-09-01T14:44:54.086Z,25.86
2022-09-01T14:47:24.978Z,25.99
2022-09-01T14:49:53.372Z,26.72
2022-09-01T14:52:22.244Z,27.70
2022-09-01T14:54:51.031Z,28.66
2022-09-01T14:57:37.798Z,29.33
2022-09-01T15:00:12.266Z,29.94
2022-09-01T15:02:41.141Z,30.32
2022-09-01T15:05:10.202Z,30.50
2022-09-01T15:07:38.531Z,29.79
2022-09-01T15:10:09.372Z,28.33
2022-09-01T15:12:39.903Z,27.13
2022-09-01T15:15:11.002Z,26.34
2022-09-01T15:17:40.359Z,25.46
2022-09-01T15:20:27.709Z,24.64
2022-09-01T15:22:56.558Z,23.77
2022-09-01T15:25:24.990Z,23.24
2022-09-01T15:27:53.106Z,22.82
2022-09-01T15:30:23.020Z,22.90
2022-09-01T15:32:54.266Z,22.60
2022-09-01T15:35:23.770Z,22.51
2022-09-01T15:40:21.099Z,22.81
2022-09-01T15:42:49.247Z,22.47
2022-09-01T15:45:20.029Z,21.79
2022-09-01T15:47:49.951Z,20.90
2022-09-01T15:50:22.116Z,20.06
2022-09-01T15:52:53.096Z,19.65
2022-09-01T15:55:24.448Z,19.37
2022-09-01T15:57:55.413Z,18.94
2022-09-01T16:00:25.020Z,18.57
2022-09-01T16:02:56.696Z,18.25
2022-09-01T16:05:26.032Z,17.98
2022-09-01T16:10:24.473Z,17.69
2022-09-01T16:12:52.645Z,17.86
2022-09-01T16:15:23.546Z,18.06
2022-09-01T16:18:05.203Z,18.21
2022-09-01T16:20:39.590Z,18.28
2022-09-01T16:23:17.278Z,18.13
2022-09-01T16:25:46.025Z,17.73
2022-09-01T16:28:25.367Z,17.58
2022-09-01T16:30:58.148Z,17.35
2022-09-01T16:33:27.840Z,17.12
2022-09-01T16:36:17.226Z,16.94
2022-09-01T16:38:49.758Z,16.69
2022-09-01T16:41:39.727Z,16.70
2022-09-01T16:44:19.173Z,16.48
2022-09-01T16:46:54.465Z,16.28
2022-09-01T16:49:30.496Z,15.65
2022-09-01T16:52:08.575Z,16.03
2022-09-01T16:54:48.094Z,15.95
2022-09-01T16:57:26.058Z,15.82
2022-09-01T16:59:56.127Z,15.59
2022-09-01T17:02:42.291Z,15.66
2022-09-01T17:05:20.202Z,15.64
2022-09-01T17:07:54.246Z,15.57
2022-09-01T17:10:41.284Z,15.48
2022-09-01T17:13:20.420Z,15.40
2022-09-01T17:15:55.349Z,15.33
2022-09-01T17:18:33.549Z,15.24
2022-09-01T17:21:11.118Z,15.15
2022-09-01T17:23:43.741Z,15.07
2022-09-01T17:26:19.904Z,14.97
2022-09-01T17:28:55.330Z,14.85
2022-09-01T17:31:50.488Z,14.74
2022-09-01T17:34:38.871Z,14.61
2022-09-01T17:37:20.787Z,14.50
2022-09-01T17:39:59.834Z,14.17
2022-09-01T17:42:33.829Z,14.10
2022-09-01T17:45:13.124Z,14.21
2022-09-01T17:47:54.911Z,14.10
2022-09-01T17:50:33.613Z,13.97
2022-09-01T17:53:10.600Z,13.87
2022-09-01T17:55:47.186Z,13.76
2022-09-01T17:58:31.542Z,13.63
2022-09-01T18:01:03.121Z,13.60
2022-09-01T18:03:46.323Z,13.54
2022-09-01T18:06:24.040Z,13.22
2022-09-01T18:08:57.685Z,13.42
2022-09-01T18:11:34.939Z,13.36
2022-09-01T18:14:08.463Z,13.29
2022-09-01T18:16:45.070Z,13.22
2022-09-01T18:19:19.101Z,13.15
2022-09-01T18:21:53.169Z,13.08
2022-09-01T18:24:27.760Z,12.91
2022-09-01T18:26:55.839Z,12.96
2022-09-01T18:29:28.568Z,12.90
2022-09-01T18:32:25.081Z,12.74
2022-09-01T18:35:08.230Z,12.77
2022-09-01T18:37:45.525Z,12.76
2022-09-01T18:40:22.636Z,12.71
2022-09-01T18:42:58.809Z,12.65
2022-09-01T18:45:36.691Z,12.47
2022-09-01T18:48:13.415Z,12.56
2022-09-01T18:50:48.945Z,12.28
2022-09-01T18:53:27.595Z,12.48
2022-09-01T18:56:02.260Z,12.45
2022-09-01T18:58:44.538Z,12.06
2022-09-01T19:01:15.763Z,12.38
2022-09-01T19:03:49.800Z,12.34
2022-09-01T19:06:31.348Z,12.31
2022-09-01T19:09:09.377Z,12.26
2022-09-01T19:11:54.713Z,12.04
2022-09-01T19:14:30.323Z,12.19
2022-09-01T19:17:33.197Z,12.10
2022-09-01T19:20:05.048Z,12.08
2022-09-01T19:22:41.986Z,12.05
2022-09-01T19:25:29.000Z,11.97
2022-09-01T19:28:03.637Z,11.85
2022-09-01T19:30:35.506Z,11.83
2022-09-01T19:33:06.336Z,11.94
2022-09-01T19:35:36.644Z,11.90
2022-09-01T19:38:08.197Z,11.88
2022-09-01T19:40:40.587Z,11.78
2022-09-01T19:43:15.779Z,11.41
2022-09-01T19:45:56.885Z,11.61
2022-09-01T19:48:33.085Z,11.69
2022-09-01T19:51:06.385Z,11.79
2022-09-01T19:53:41.788Z,11.62
2022-09-01T19:56:13.986Z,11.73
2022-09-01T19:58:52.814Z,11.68
2022-09-01T20:01:31.084Z,11.62
2022-09-01T20:04:02.912Z,11.60
2022-09-01T20:06:35.113Z,11.58
2022-09-01T20:09:09.297Z,11.57
2022-09-01T20:11:47.903Z,11.57
2022-09-01T20:14:34.856Z,11.53
2022-09-01T20:17:05.545Z,11.49
2022-09-01T20:19:40.835Z,11.47
2022-09-01T20:22:21.627Z,11.34
2022-09-01T20:24:50.071Z,11.31
2022-09-01T20:27:33.187Z,11.26
2022-09-01T20:30:06.065Z,11.32
2022-09-01T20:32:40.404Z,11.22
2022-09-01T20:35:14.209Z,10.98
2022-09-01T20:37:46.480Z,11.17
2022-09-01T20:40:17.704Z,11.14
2022-09-01T20:43:04.210Z,11.11
2022-09-01T20:45:33.683Z,11.04
2022-09-01T20:48:04.827Z,11.01
2022-09-01T20:50:42.775Z,11.00
2022-09-01T20:53:35.241Z,11.01
2022-09-01T20:56:10.632Z,10.95
2022-09-01T20:58:44.908Z,10.90
2022-09-01T21:01:20.092Z,10.87
2022-09-01T21:03:59.820Z,10.83
2022-09-01T21:06:48.620Z,10.80
2022-09-01T21:09:22.625Z,10.76
2022-09-01T21:11:59.704Z,10.74
2022-09-01T21:14:41.170Z,10.72
2022-09-01T21:17:22.049Z,10.52
2022-09-01T21:19:59.378Z,10.69
2022-09-01T21:22:28.952Z,10.67
2022-09-01T21:24:57.387Z,10.65
2022-09-01T21:27:28.025Z,10.58
2022-09-01T21:29:59.937Z,10.70
2022-09-01T21:32:30.800Z,10.74
2022-09-01T21:34:59.840Z,10.79
2022-09-01T21:37:29.971Z,10.72
2022-09-01T21:39:58.270Z,10.81
2022-09-01T21:42:28.583Z,10.80
2022-09-01T21:44:58.537Z,10.64
2022-09-01T21:47:28.077Z,10.73
2022-09-01T21:49:57.400Z,10.76
2022-09-01T21:52:25.494Z,10.75
2022-09-01T21:54:53.705Z,10.71
2022-09-01T21:57:23.102Z,10.67
2022-09-01T21:59:51.596Z,10.64
2022-09-01T22:02:20.518Z,10.50
2022-09-01T22:04:48.921Z,10.46
2022-09-01T22:07:18.876Z,10.59
2022-09-01T22:09:47.476Z,10.67
2022-09-01T22:12:15.931Z,10.68
2022-09-01T22:14:43.924Z,10.71
2022-09-01T22:17:11.950Z,10.68
2022-09-01T22:19:39.928Z,10.75
2022-09-01T22:22:08.940Z,10.77
2022-09-01T22:24:38.350Z,10.78
2022-09-01T22:27:06.293Z,10.80
2022-09-01T22:29:34.398Z,10.82
2022-09-01T22:32:02.402Z,10.83
2022-09-01T22:34:30.273Z,10.83
2022-09-01T22:36:58.269Z,10.85
2022-09-01T22:39:26.228Z,10.85
2022-09-01T22:41:55.573Z,10.46
2022-09-01T22:44:23.831Z,10.74
2022-09-01T22:46:51.908Z,10.58
2022-09-01T22:49:19.896Z,10.74
2022-09-01T22:51:47.902Z,10.70
2022-09-01T22:54:15.949Z,10.68
2022-09-01T22:56:45.278Z,10.67
2022-09-01T22:59:16.394Z,10.67
2022-09-01T23:01:47.646Z,10.59
2022-09-01T23:04:17.540Z,10.74
2022-09-01T23:06:47.641Z,10.76
2022-09-01T23:09:16.821Z,10.79
2022-09-01T23:11:45.764Z,10.83
2022-09-01T23:14:15.596Z,10.87
2022-09-01T23:16:43.597Z,10.91
2022-09-01T23:19:12.156Z,10.93
2022-09-01T23:21:40.573Z,10.80
2022-09-01T23:24:08.757Z,10.98
2022-09-01T23:26:37.380Z,10.77
2022-09-01T23:29:06.158Z,10.87
2022-09-01T23:31:38.207Z,11.04
2022-09-01T23:34:08.230Z,11.05
2022-09-01T23:36:37.058Z,11.06
2022-09-01T23:39:05.310Z,11.07
2022-09-01T23:41:35.537Z,11.09
2022-09-01T23:44:06.067Z,11.10
2022-09-01T23:46:38.281Z,10.81
2022-09-01T23:49:06.402Z,11.09
2022-09-01T23:51:34.592Z,11.01
2022-09-01T23:54:03.047Z,11.05
2022-09-01T23:56:31.586Z,11.03
2022-09-01T23:59:00.574Z,11.00
